Time;durP1;ratioP1;P1;durP2;ratioP2;P2;SDS_P1;SDS_P2;PMS_P1;PMS_P2;Temp;Humidity;BMP_temperature;BMP_pressure;BME280_temperature;BME280_humidity;BME280_pressure;Samples;Min_cycle;Max_cycle;Signal;HPM_P1;HPM_P2
2023/06/22 06:59:57;;;;;;;15.35;6.85;;;;;;;23.53;70.65;96549.06;2084286;28;20874;-58
2023/06/22 07:02:08;;;;;;;25.17;6.90;;;;;;;23.80;70.47;96548.97;2084134;28;20964;-58
2023/06/22 07:04:19;;;;;;;12.23;6.88;;;;;;;24.21;69.11;96531.66;2107526;27;20570;-58
2023/06/22 07:06:31;;;;;;;20.70;7.55;;;;;;;24.12;69.59;96531.63;2082489;28;20553;-58
2023/06/22 07:08:58;;;;;;;24.60;7.07;;;;;;;24.43;68.44;96527.63;2099249;27;21069;-58
2023/06/22 07:11:25;;;;;;;20.20;6.50;;;;;;;24.89;66.92;96524.69;2084078;28;20553;-58
2023/06/22 07:12:26;;;;;;;25.60;7.22;;;;;;;25.01;66.48;96533.25;2082389;28;20189;-59
2023/06/22 07:14:38;;;;;;;26.10;7.40;;;;;;;24.85;66.63;96532.19;2088163;28;20590;-58
2023/06/22 07:15:40;;;;;;;13.88;6.53;;;;;;;24.50;68.08;96523.31;2082843;28;20193;-58
2023/06/22 07:16:41;;;;;;;19.13;7.93;;;;;;;24.25;67.61;96523.19;2082591;28;20225;-58
2023/06/22 07:19:02;;;;;;;21.50;7.20;;;;;;;24.38;67.94;96517.44;2102103;27;20568;-58
2023/06/22 07:20:13;;;;;;;16.90;6.03;;;;;;;24.54;68.07;96524.66;2099638;28;20535;-58
2023/06/22 07:21:14;;;;;;;20.60;8.18;;;;;;;24.38;67.74;96517.44;2099431;28;20240;-59
2023/06/22 07:22:16;;;;;;;17.17;7.60;;;;;;;24.37;67.79;96517.59;2099059;28;20187;-58
2023/06/22 07:23:17;;;;;;;14.30;7.20;;;;;;;24.30;67.63;96520.03;2085410;28;20225;-58
2023/06/22 07:25:53;;;;;;;14.07;7.25;;;;;;;23.91;68.42;96517.75;2098138;27;20885;-58
2023/06/22 07:26:55;;;;;;;15.70;6.43;;;;;;;23.61;68.94;96517.19;2098477;28;20834;-58
2023/06/22 07:28:02;;;;;;;11.98;6.80;;;;;;;23.58;69.38;96515.66;2089917;28;20210;-59
2023/06/22 07:29:04;;;;;;;17.20;7.82;;;;;;;23.53;69.63;96511.75;2084152;28;20194;-59
2023/06/22 07:30:06;;;;;;;22.25;8.93;;;;;;;23.52;70.61;96512.78;2084077;28;20647;-59
2023/06/22 07:31:07;;;;;;;12.63;7.68;;;;;;;24.12;69.66;96504.09;2078811;28;20194;-59
2023/06/22 07:32:09;;;;;;;18.25;8.13;;;;;;;24.58;68.31;96503.84;2080369;28;20784;-59
2023/06/22 07:33:10;;;;;;;15.20;7.55;;;;;;;24.48;67.19;96503.13;2088194;28;20762;-59
2023/06/22 07:34:12;;;;;;;25.08;7.63;;;;;;;24.36;68.23;96500.72;2092647;28;20596;-59
2023/06/22 07:35:16;;;;;;;17.58;7.18;;;;;;;24.79;67.93;96500.78;2090684;28;20846;-59
2023/06/22 07:36:18;;;;;;;20.38;7.72;;;;;;;25.21;66.87;96501.75;2089815;28;20199;-58
2023/06/22 07:37:19;;;;;;;30.42;7.50;;;;;;;25.41;65.79;96500.47;2089699;28;20205;-59
2023/06/22 07:38:20;;;;;;;20.27;7.15;;;;;;;25.10;65.17;96497.53;2092604;28;20231;-58
2023/06/22 07:39:25;;;;;;;23.98;7.18;;;;;;;25.20;65.38;96506.22;2092318;28;20743;-59
2023/06/22 07:40:27;;;;;;;13.50;6.90;;;;;;;25.32;65.26;96503.25;2090538;28;20195;-59
2023/06/22 07:41:29;;;;;;;13.95;6.55;;;;;;;25.41;65.00;96494.31;2090927;28;20203;-59
2023/06/22 07:42:32;;;;;;;19.92;7.05;;;;;;;25.07;64.99;96503.22;2090113;28;20195;-59
2023/06/22 07:43:36;;;;;;;22.20;6.60;;;;;;;25.48;64.73;96502.47;2090492;28;20196;-58
2023/06/22 07:44:38;;;;;;;14.82;6.10;;;;;;;25.65;64.22;96500.66;2087078;28;20197;-58
2023/06/22 07:45:40;;;;;;;12.82;6.72;;;;;;;25.92;64.05;96499.47;2087670;28;20208;-59
2023/06/22 07:46:41;;;;;;;16.20;6.30;;;;;;;26.14;63.05;96500.63;2090523;28;20197;-59
2023/06/22 07:47:43;;;;;;;19.15;6.85;;;;;;;26.24;63.43;96505.81;2090340;28;20254;-59
2023/06/22 07:48:44;;;;;;;19.02;6.22;;;;;;;26.01;62.53;96502.97;2092390;28;20240;-59
2023/06/22 07:49:46;;;;;;;16.08;5.82;;;;;;;26.13;62.67;96501.66;2092239;28;20253;-59
2023/06/22 07:50:48;;;;;;;25.20;6.72;;;;;;;26.33;62.24;96499.41;2091502;28;20224;-59
2023/06/22 07:51:49;;;;;;;13.77;6.35;;;;;;;26.33;61.66;96503.94;2091378;28;20362;-59
2023/06/22 07:52:52;;;;;;;17.75;7.15;;;;;;;26.01;63.39;96503.81;2088565;28;20485;-59
2023/06/22 07:53:54;;;;;;;18.20;6.40;;;;;;;26.23;62.54;96509.47;2090653;28;20229;-59
2023/06/22 07:54:55;;;;;;;20.15;7.45;;;;;;;26.22;62.30;96511.34;2090981;28;20186;-59
2023/06/22 07:55:57;;;;;;;25.67;6.97;;;;;;;25.43;63.73;96508.31;2090333;28;20234;-59
2023/06/22 07:56:58;;;;;;;15.70;6.28;;;;;;;25.85;63.27;96512.69;2089765;28;20549;-59
2023/06/22 07:58:00;;;;;;;13.98;6.70;;;;;;;26.33;62.15;96515.47;2091088;28;20302;-59
2023/06/22 07:59:03;;;;;;;13.00;6.70;;;;;;;26.82;61.44;96511.03;2090293;28;20251;-59
2023/06/22 08:00:15;;;;;;;12.50;5.88;;;;;;;27.15;60.17;96510.88;2090067;28;20525;-59
2023/06/22 08:01:19;;;;;;;19.65;7.18;;;;;;;26.82;59.84;96516.38;2087247;28;20205;-59
2023/06/22 08:02:20;;;;;;;20.05;7.28;;;;;;;26.35;61.08;96523.38;2090303;28;20200;-59
2023/06/22 08:03:22;;;;;;;12.35;7.53;;;;;;;26.21;61.97;96516.88;2090372;28;20294;-59
2023/06/22 08:04:23;;;;;;;12.45;6.55;;;;;;;25.80;62.42;96525.72;2091808;28;20199;-59
2023/06/22 08:05:25;;;;;;;14.68;6.60;;;;;;;25.76;62.56;96524.38;2086815;28;20764;-58
2023/06/22 08:06:29;;;;;;;19.52;7.55;;;;;;;25.60;62.75;96533.25;2089552;28;20196;-59
2023/06/22 08:07:33;;;;;;;16.35;7.10;;;;;;;25.87;62.87;96536.59;2092130;28;20204;-60
2023/06/22 08:08:36;;;;;;;11.75;6.80;;;;;;;26.14;62.21;96537.25;2087005;28;20687;-59
2023/06/22 08:09:37;;;;;;;11.00;6.55;;;;;;;26.47;61.09;96545.25;2089553;28;20193;-58
2023/06/22 08:10:39;;;;;;;15.68;7.13;;;;;;;26.59;61.00;96538.53;2092267;28;20218;-59
2023/06/22 08:11:40;;;;;;;15.07;6.32;;;;;;;26.40;60.27;96534.38;2090135;28;20192;-59
2023/06/22 08:12:42;;;;;;;17.98;6.10;;;;;;;26.49;60.04;96535.22;2091181;28;20712;-59
2023/06/22 08:13:43;;;;;;;15.05;6.07;;;;;;;26.59;59.60;96535.00;2090003;28;20614;-59
2023/06/22 08:14:45;;;;;;;12.35;5.05;;;;;;;26.39;59.90;96543.41;2091108;28;20197;-58
2023/06/22 08:15:47;;;;;;;14.30;5.47;;;;;;;26.18;61.23;96542.13;2086975;28;20244;-59
2023/06/22 08:16:51;;;;;;;12.80;4.93;;;;;;;26.21;60.62;96546.28;2090952;28;20205;-58
2023/06/22 08:17:52;;;;;;;14.82;5.38;;;;;;;25.93;61.41;96533.25;2091294;28;20232;-59
2023/06/22 08:18:55;;;;;;;16.45;5.20;;;;;;;26.03;61.20;96533.06;2087136;28;20197;-59
2023/06/22 08:19:56;;;;;;;14.77;5.50;;;;;;;25.96;60.97;96545.44;2087879;28;20201;-58
2023/06/22 08:20:58;;;;;;;11.90;5.40;;;;;;;26.03;60.64;96533.06;2090365;28;20200;-58
2023/06/22 08:21:59;;;;;;;22.40;7.57;;;;;;;26.20;61.05;96539.28;2090337;28;20629;-58
2023/06/22 08:23:05;;;;;;;16.65;6.43;;;;;;;26.06;61.67;96540.78;2089419;28;20832;-59
2023/06/22 08:24:07;;;;;;;13.10;6.97;;;;;;;25.83;61.79;96535.25;2090880;28;20205;-58
2023/06/22 08:25:10;;;;;;;11.68;5.05;;;;;;;25.59;62.14;96529.72;2089721;28;20338;-58
2023/06/22 08:26:12;;;;;;;17.17;5.13;;;;;;;25.68;62.49;96533.22;2091493;28;20228;-58
2023/06/22 08:27:14;;;;;;;15.35;5.72;;;;;;;25.63;62.28;96542.75;2106679;28;20262;-58
2023/06/22 08:28:16;;;;;;;13.23;6.10;;;;;;;25.51;63.01;96536.88;2105603;28;20281;-59
2023/06/22 08:29:17;;;;;;;17.45;6.22;;;;;;;25.30;62.44;96542.69;2089960;28;20223;-58
2023/06/22 08:30:19;;;;;;;14.68;5.90;;;;;;;25.09;62.93;96550.13;2090132;28;20196;-58
2023/06/22 08:31:20;;;;;;;9.27;5.00;;;;;;;24.96;63.48;96549.75;2086876;28;20200;-58
2023/06/22 08:32:22;;;;;;;15.77;5.85;;;;;;;24.83;63.69;96557.38;2089568;28;20208;-58
2023/06/22 08:33:28;;;;;;;14.63;6.53;;;;;;;24.76;63.99;96547.34;2089598;28;20271;-58
2023/06/22 08:34:30;;;;;;;16.40;6.22;;;;;;;24.73;64.20;96552.16;2090109;28;20197;-58
2023/06/22 08:35:31;;;;;;;27.38;6.60;;;;;;;24.67;64.34;96550.97;2089764;28;20456;-58
2023/06/22 08:36:41;;;;;;;19.00;6.07;;;;;;;24.67;64.52;96550.97;2087512;28;20192;-58
2023/06/22 08:37:42;;;;;;;11.07;5.63;;;;;;;24.66;64.79;96553.78;2083411;28;20201;-58
2023/06/22 08:38:44;;;;;;;17.65;5.78;;;;;;;24.80;64.54;96549.66;2084007;28;20524;-58
2023/06/22 08:39:46;;;;;;;17.13;6.35;;;;;;;24.95;64.12;96548.09;2084871;28;20196;-58
2023/06/22 08:40:48;;;;;;;10.00;5.35;;;;;;;25.10;63.90;96540.28;2083470;28;20227;-58
2023/06/22 08:41:49;;;;;;;15.52;5.80;;;;;;;25.07;63.42;96546.78;2083397;28;20204;-58
2023/06/22 08:42:51;;;;;;;16.90;6.65;;;;;;;25.04;63.63;96535.56;2083301;28;20231;-58
2023/06/22 08:43:52;;;;;;;15.65;6.25;;;;;;;24.93;63.87;96542.88;2085282;28;20817;-58
2023/06/22 08:44:53;;;;;;;11.00;5.55;;;;;;;25.12;63.78;96548.16;2084839;28;20203;-58
2023/06/22 08:45:55;;;;;;;11.75;5.55;;;;;;;25.07;63.93;96535.28;2085290;28;20210;-59
2023/06/22 08:46:57;;;;;;;11.00;5.45;;;;;;;25.00;64.62;96528.91;2085553;28;20206;-58
2023/06/22 08:47:58;;;;;;;22.63;5.18;;;;;;;25.14;64.49;96547.00;2084155;28;20224;-61
2023/06/22 08:49:00;;;;;;;13.68;5.28;;;;;;;25.13;63.13;96561.34;2083982;28;20201;-61
2023/06/22 08:50:03;;;;;;;15.75;6.10;;;;;;;25.07;63.76;96581.50;2083044;28;20205;-61
2023/06/22 08:51:04;;;;;;;11.00;5.85;;;;;;;25.06;64.48;96587.84;2100839;28;20424;-61
2023/06/22 08:52:07;;;;;;;13.63;6.15;;;;;;;25.11;64.20;96584.69;2101076;28;20215;-61
2023/06/22 08:53:09;;;;;;;13.13;5.65;;;;;;;25.10;64.10;96578.53;2082575;28;20228;-61
2023/06/22 08:54:10;;;;;;;14.55;6.35;;;;;;;25.06;64.11;96587.00;2081176;28;20214;-58
2023/06/22 08:55:12;;;;;;;14.30;5.60;;;;;;;25.06;64.59;96589.69;2081255;28;20289;-58
2023/06/22 08:56:13;;;;;;;10.90;6.50;;;;;;;24.98;64.16;96589.66;2100458;28;20211;-58
2023/06/22 08:57:15;;;;;;;12.73;5.75;;;;;;;25.18;64.60;96575.03;2096934;28;20860;-58
2023/06/22 08:58:18;;;;;;;15.85;6.00;;;;;;;25.32;63.57;96554.88;2082172;28;20221;-58
2023/06/22 08:59:19;;;;;;;8.75;5.13;;;;;;;25.35;63.08;96546.53;2084880;28;20334;-58
2023/06/22 09:00:21;;;;;;;11.48;6.53;;;;;;;25.48;63.17;96539.91;2085252;28;20651;-58
2023/06/22 09:01:22;;;;;;;12.98;7.18;;;;;;;25.76;61.24;96543.09;2084980;28;20239;-58
2023/06/22 09:02:25;;;;;;;14.38;5.80;;;;;;;25.95;61.34;96536.56;2087665;28;20209;-58
2023/06/22 09:03:27;;;;;;;13.15;5.53;;;;;;;26.33;61.00;96530.72;2086463;28;20688;-58
2023/06/22 09:04:28;;;;;;;15.35;5.70;;;;;;;26.50;60.08;96537.72;2085802;28;20203;-59
2023/06/22 09:05:30;;;;;;;14.82;6.40;;;;;;;26.99;59.87;96536.72;2081184;28;20197;-58
2023/06/22 09:06:32;;;;;;;11.27;5.72;;;;;;;27.11;59.54;96534.50;2084050;28;20212;-58
2023/06/22 09:07:34;;;;;;;18.10;5.75;;;;;;;27.07;59.54;96535.00;2085870;28;20835;-59
2023/06/22 09:08:36;;;;;;;21.83;5.47;;;;;;;26.96;60.07;96530.88;2085198;28;20331;-59
2023/06/22 09:09:37;;;;;;;17.65;5.72;;;;;;;26.84;60.09;96533.09;2084869;28;20663;-59
2023/06/22 09:10:39;;;;;;;17.05;5.70;;;;;;;26.64;59.87;96524.59;2085031;28;20209;-59
2023/06/22 09:11:40;;;;;;;17.20;6.22;;;;;;;26.60;59.62;96515.25;2083998;28;20196;-59
2023/06/22 09:12:42;;;;;;;17.10;5.40;;;;;;;26.63;59.97;96515.75;2083283;28;20197;-58
2023/06/22 09:13:44;;;;;;;17.13;5.47;;;;;;;26.78;59.57;96510.53;2084460;28;20258;-59
2023/06/22 09:14:46;;;;;;;16.70;5.47;;;;;;;26.89;59.60;96509.31;2081255;28;20758;-59
2023/06/22 09:15:48;;;;;;;18.58;5.85;;;;;;;26.81;59.55;96507.50;2086521;28;20655;-59
2023/06/22 09:16:49;;;;;;;14.40;6.20;;;;;;;26.33;61.14;96503.94;2086606;28;20189;-59
2023/06/22 09:17:53;;;;;;;12.45;6.05;;;;;;;26.24;61.50;96497.78;2083383;28;21316;-59
2023/06/22 09:18:55;;;;;;;13.25;6.30;;;;;;;25.86;62.80;96494.78;2085287;28;20545;-58
2023/06/22 09:19:57;;;;;;;13.23;6.72;;;;;;;25.31;64.07;96494.41;2085619;28;20193;-59
2023/06/22 09:20:58;;;;;;;10.90;6.05;;;;;;;25.35;64.17;96484.25;2084190;28;20197;-58
2023/06/22 09:22:00;;;;;;;12.90;6.80;;;;;;;25.68;62.92;96492.31;2083939;28;20205;-58
2023/06/22 09:23:01;;;;;;;21.98;6.97;;;;;;;25.95;62.85;96491.09;2085578;28;20248;-59
2023/06/22 09:24:03;;;;;;;14.13;5.30;;;;;;;26.10;62.67;96488.63;2084642;28;20194;-58
2023/06/22 09:25:05;;;;;;;19.35;7.18;;;;;;;25.81;62.96;96495.28;2080909;28;20201;-58
2023/06/22 09:26:08;;;;;;;14.32;7.38;;;;;;;26.10;62.26;96493.13;2084559;28;20255;-58
2023/06/22 09:27:09;;;;;;;14.20;7.00;;;;;;;26.07;63.02;96495.13;2084017;28;20193;-59
2023/06/22 09:28:11;;;;;;;17.02;6.30;;;;;;;25.98;63.05;96497.94;2084751;28;20225;-59
2023/06/22 09:29:12;;;;;;;21.55;6.72;;;;;;;25.95;62.98;96498.31;2084203;28;20222;-59
2023/06/22 09:30:14;;;;;;;12.00;5.82;;;;;;;26.38;61.89;96491.72;2084715;28;20210;-58
2023/06/22 09:31:16;;;;;;;18.58;5.80;;;;;;;26.67;61.39;96490.28;2084392;28;20193;-58
2023/06/22 09:32:18;;;;;;;15.55;5.50;;;;;;;26.91;60.81;96490.41;2084722;28;20197;-58
2023/06/22 09:33:19;;;;;;;17.55;6.32;;;;;;;27.13;60.46;96481.53;2080305;28;20230;-58
2023/06/22 09:34:21;;;;;;;15.18;6.63;;;;;;;27.47;59.60;96480.34;2081153;28;20756;-58
2023/06/22 09:35:22;;;;;;;9.52;4.93;;;;;;;27.64;58.69;96480.22;2084080;28;20663;-58
2023/06/22 09:36:23;;;;;;;16.20;6.15;;;;;;;27.49;58.93;96478.34;2083069;28;20194;-59
2023/06/22 09:37:25;;;;;;;22.55;6.78;;;;;;;27.47;58.88;96474.16;2081361;28;20255;-58
2023/06/22 09:38:26;;;;;;;16.70;5.55;;;;;;;27.52;58.20;96479.81;2081100;28;20612;-58
2023/06/22 09:39:28;;;;;;;11.23;5.75;;;;;;;27.41;57.37;96481.06;2083289;28;20542;-58
2023/06/22 09:40:29;;;;;;;16.45;6.93;;;;;;;27.67;57.97;96480.69;2082887;28;20192;-59
2023/06/22 09:41:32;;;;;;;15.75;5.95;;;;;;;27.78;57.00;96459.81;2081135;28;20197;-59
2023/06/22 09:42:34;;;;;;;17.75;6.72;;;;;;;27.99;57.02;96461.81;2081260;28;20209;-59
2023/06/22 09:43:36;;;;;;;13.25;5.75;;;;;;;28.06;56.72;96464.63;2083586;28;20722;-58
2023/06/22 09:44:37;;;;;;;12.85;5.97;;;;;;;27.76;56.78;96462.69;2084597;28;20198;-58
2023/06/22 09:45:39;;;;;;;13.73;6.10;;;;;;;27.57;57.50;96460.53;2084860;28;20224;-59
2023/06/22 09:46:41;;;;;;;18.48;5.88;;;;;;;27.94;56.45;96465.03;2084312;28;20686;-59
2023/06/22 09:47:42;;;;;;;11.30;6.32;;;;;;;28.43;56.20;96468.25;2083456;28;20218;-59
2023/06/22 09:48:44;;;;;;;25.15;6.13;;;;;;;28.96;55.17;96468.13;2080300;28;20198;-59
2023/06/22 09:49:45;;;;;;;12.27;5.63;;;;;;;28.89;55.68;96468.03;2082665;28;20736;-59
2023/06/22 09:50:49;;;;;;;15.48;5.70;;;;;;;28.65;55.59;96472.69;2086528;28;20217;-59
2023/06/22 09:51:52;;;;;;;15.07;5.77;;;;;;;28.37;56.39;96477.88;2084346;28;20530;-59
2023/06/22 09:52:54;;;;;;;12.60;5.60;;;;;;;28.04;56.94;96478.22;2083261;28;20789;-59
2023/06/22 09:53:56;;;;;;;13.30;5.93;;;;;;;28.60;55.37;96476.97;2085234;28;20568;-58
2023/06/22 09:54:58;;;;;;;12.93;5.93;;;;;;;28.54;55.78;96475.00;2084469;28;20515;-59
2023/06/22 09:56:00;;;;;;;17.58;6.70;;;;;;;28.92;55.66;96474.91;2084970;28;20239;-59
2023/06/22 09:57:02;;;;;;;23.70;6.30;;;;;;;29.11;55.24;96468.91;2080825;28;20205;-59
2023/06/22 09:58:03;;;;;;;16.47;5.63;;;;;;;29.57;53.26;96470.44;2080475;28;20549;-59
2023/06/22 09:59:05;;;;;;;13.50;5.57;;;;;;;29.84;52.39;96465.28;2084409;28;20418;-59
2023/06/22 10:00:19;;;;;;;19.47;7.17;;;;;;;29.74;53.14;96470.19;2083702;28;20441;-59
2023/06/22 10:01:21;;;;;;;15.83;6.23;;;;;;;29.37;54.34;96451.44;2084817;28;20660;-59
2023/06/22 10:02:23;;;;;;;15.47;5.80;;;;;;;28.78;54.98;96466.66;2084824;28;20458;-59
2023/06/22 10:03:24;;;;;;;16.70;5.60;;;;;;;28.13;56.25;96468.25;2083502;28;20463;-59
2023/06/22 10:04:26;;;;;;;22.13;6.30;;;;;;;27.99;56.90;96454.59;2083965;28;20771;-58
2023/06/22 10:05:28;;;;;;;21.73;5.60;;;;;;;28.17;56.16;96448.88;2080720;28;20521;-58
2023/06/22 10:06:30;;;;;;;12.10;5.93;;;;;;;28.15;56.24;96442.91;2081567;28;20639;-59
2023/06/22 10:07:32;;;;;;;13.13;5.10;;;;;;;28.88;55.61;96444.88;2083688;28;20430;-59
2023/06/22 10:08:33;;;;;;;15.10;6.07;;;;;;;29.58;53.73;96444.38;2084915;28;20430;-59
2023/06/22 10:09:35;;;;;;;19.65;5.97;;;;;;;29.42;53.94;96445.47;2085393;28;20425;-59
2023/06/22 10:10:36;;;;;;;13.15;5.82;;;;;;;30.02;52.85;96448.69;2084285;28;20541;-59
2023/06/22 10:11:38;;;;;;;14.03;5.70;;;;;;;30.20;53.07;96447.38;2083999;28;20587;-59
2023/06/22 10:13:01;;;;;;;17.37;5.40;;;;;;;30.15;53.21;96444.44;2083130;28;20433;-59
2023/06/22 10:14:04;;;;;;;16.63;6.10;;;;;;;30.27;52.78;96443.69;2085161;28;20433;-59
2023/06/22 10:15:06;;;;;;;20.23;6.80;;;;;;;30.64;51.75;96442.63;2085118;28;20434;-59
2023/06/22 10:16:08;;;;;;;25.73;6.53;;;;;;;30.71;52.15;96444.31;2085720;28;20457;-59
2023/06/22 10:17:09;;;;;;;16.42;5.85;;;;;;;30.52;52.34;96445.09;2084570;28;20426;-59
2023/06/22 10:18:11;;;;;;;11.95;6.03;;;;;;;30.48;52.47;96439.25;2085333;28;20224;-59
2023/06/22 10:19:12;;;;;;;21.50;6.00;;;;;;;30.85;52.19;96444.41;2084512;28;20192;-59
2023/06/22 10:20:14;;;;;;;28.73;7.07;;;;;;;30.36;52.65;96440.81;2083585;28;20427;-59
2023/06/22 10:21:16;;;;;;;18.20;5.83;;;;;;;30.62;52.35;96437.47;2085234;28;20459;-59
2023/06/22 10:22:17;;;;;;;19.87;5.43;;;;;;;30.66;52.85;96435.19;2084356;28;20479;-59
2023/06/22 10:23:20;;;;;;;19.87;6.37;;;;;;;30.21;52.08;96435.56;2082507;28;20484;-59
2023/06/22 10:24:21;;;;;;;23.47;6.27;;;;;;;30.66;52.00;96432.50;2085618;28;20430;-59
2023/06/22 10:25:22;;;;;;;18.00;5.73;;;;;;;30.77;51.18;96429.22;2083929;28;20466;-59
2023/06/22 10:26:24;;;;;;;16.00;6.30;;;;;;;30.67;51.52;96421.53;2082358;28;20488;-59
2023/06/22 10:27:26;;;;;;;27.33;6.00;;;;;;;30.77;51.89;96432.75;2084623;28;20507;-59
2023/06/22 10:28:27;;;;;;;16.07;6.33;;;;;;;29.57;53.73;96424.72;2082921;28;20472;-59
2023/06/22 10:29:32;;;;;;;20.10;6.35;;;;;;;29.88;53.12;96434.31;2083566;28;20995;-59
2023/06/22 10:30:34;;;;;;;14.10;5.87;;;;;;;30.01;53.18;96436.25;2084488;28;20584;-58
2023/06/22 10:31:36;;;;;;;15.33;5.87;;;;;;;30.81;52.74;96432.38;2080687;28;21125;-58
2023/06/22 10:32:38;;;;;;;15.67;6.20;;;;;;;30.48;51.97;96428.47;2081154;28;20427;-59
2023/06/22 10:33:41;;;;;;;11.57;6.00;;;;;;;30.56;52.38;96438.25;2080592;28;20442;-59
2023/06/22 10:34:42;;;;;;;18.57;6.13;;;;;;;30.19;53.47;96426.84;2080589;28;20889;-59
2023/06/22 10:35:44;;;;;;;16.13;6.70;;;;;;;30.32;52.88;96431.47;2081702;28;20438;-59
2023/06/22 10:36:48;;;;;;;13.97;6.13;;;;;;;31.20;51.91;96437.06;2082820;28;20971;-59
2023/06/22 10:37:50;;;;;;;13.27;5.77;;;;;;;31.67;51.33;96429.03;2083105;28;20449;-59
2023/06/22 10:38:53;;;;;;;13.70;6.10;;;;;;;32.09;50.09;96428.81;2080524;28;20438;-59
2023/06/22 10:39:54;;;;;;;11.80;5.37;;;;;;;31.32;49.43;96431.88;2081371;28;20425;-59
2023/06/22 10:40:56;;;;;;;13.67;5.83;;;;;;;30.18;51.98;96430.56;2083954;28;20925;-59
2023/06/22 10:41:59;;;;;;;11.73;5.40;;;;;;;30.98;50.82;96422.03;2083457;28;20427;-59
2023/06/22 10:43:01;;;;;;;13.70;6.13;;;;;;;30.81;51.27;96435.88;2079908;28;20458;-59
2023/06/22 10:44:02;;;;;;;19.80;6.20;;;;;;;30.67;50.83;96426.09;2081104;28;20822;-59
2023/06/22 10:45:04;;;;;;;11.73;5.50;;;;;;;31.10;50.79;96426.66;2082899;28;20530;-59
2023/06/22 10:46:06;;;;;;;18.10;5.63;;;;;;;31.51;50.20;96427.53;2082805;28;20441;-59
2023/06/22 10:47:08;;;;;;;18.60;6.20;;;;;;;30.92;51.26;96424.50;2084696;28;20525;-59
2023/06/22 10:48:09;;;;;;;13.35;5.72;;;;;;;30.92;50.78;96416.44;2082622;28;20461;-59
2023/06/22 10:49:11;;;;;;;14.30;6.93;;;;;;;30.55;51.42;96421.28;2084610;28;20201;-59
2023/06/22 10:50:12;;;;;;;9.40;5.30;;;;;;;30.74;50.71;96425.09;2083210;28;20453;-59
2023/06/22 10:51:14;;;;;;;18.97;6.10;;;;;;;31.15;50.68;96423.34;2082358;28;20434;-59
2023/06/22 10:52:15;;;;;;;15.93;6.13;;;;;;;31.33;50.34;96420.06;2082415;28;20454;-59
2023/06/22 10:53:17;;;;;;;19.07;6.23;;;;;;;30.92;50.48;96427.22;2079843;28;20469;-60
2023/06/22 10:54:19;;;;;;;17.93;5.70;;;;;;;30.62;50.76;96429.38;2080894;28;20442;-59
2023/06/22 10:55:21;;;;;;;17.50;6.13;;;;;;;31.30;49.94;96425.03;2080351;28;21155;-59
2023/06/22 10:56:22;;;;;;;20.93;6.43;;;;;;;31.68;49.59;96419.91;2080513;28;20480;-59
2023/06/22 10:57:24;;;;;;;31.53;6.40;;;;;;;32.15;48.25;96419.03;2084174;28;20480;-60
2023/06/22 10:58:26;;;;;;;14.30;5.80;;;;;;;32.34;47.33;96415.50;2083664;28;20457;-59
2023/06/22 10:59:29;;;;;;;14.83;5.10;;;;;;;32.05;48.26;96411.38;2084116;28;20198;-59
2023/06/22 11:00:30;;;;;;;14.47;6.13;;;;;;;32.15;48.24;96417.16;2083823;28;20906;-59
2023/06/22 11:01:33;;;;;;;17.60;5.45;;;;;;;32.83;47.38;96429.44;2082509;28;20425;-59
2023/06/22 11:02:37;;;;;;;16.97;6.30;;;;;;;32.76;46.36;96422.41;2085260;28;20632;-59
2023/06/22 11:03:38;;;;;;;22.50;5.95;;;;;;;33.01;46.89;96423.34;2085132;28;20525;-59
2023/06/22 11:04:40;;;;;;;23.97;5.73;;;;;;;32.94;46.55;96417.16;2085475;28;20528;-59
2023/06/22 11:05:42;;;;;;;16.70;6.50;;;;;;;33.57;45.85;96411.97;2085584;28;20568;-59
2023/06/22 11:06:43;;;;;;;17.50;5.40;;;;;;;33.95;45.20;96424.59;2080305;28;20435;-59
2023/06/22 11:07:45;;;;;;;17.60;5.90;;;;;;;34.27;45.02;96422.59;2082160;28;20462;-59
2023/06/22 11:08:48;;;;;;;17.63;5.23;;;;;;;34.39;44.68;96419.19;2082199;28;20470;-59
2023/06/22 11:10:07;;;;;;;11.95;5.32;;;;;;;33.04;46.21;96414.78;2084426;28;20425;-59
2023/06/22 11:11:08;;;;;;;15.20;5.40;;;;;;;31.95;46.96;96417.19;2084390;28;20439;-59
2023/06/22 11:12:10;;;;;;;15.90;6.13;;;;;;;31.36;48.66;96425.06;2080371;28;20460;-59
2023/06/22 11:13:11;;;;;;;15.50;5.97;;;;;;;30.89;49.43;96421.38;2079792;28;20221;-59
2023/06/22 11:14:13;;;;;;;23.60;6.30;;;;;;;30.92;49.35;96423.69;2081998;28;20480;-59
2023/06/22 11:15:15;;;;;;;19.07;6.07;;;;;;;30.79;50.13;96429.84;2084008;28;20964;-59
2023/06/22 11:16:16;;;;;;;18.53;6.03;;;;;;;30.75;49.30;96428.59;2084172;28;20514;-59
2023/06/22 11:17:18;;;;;;;14.60;5.83;;;;;;;30.89;49.54;96418.69;2084890;28;20425;-59
2023/06/22 11:18:19;;;;;;;11.80;5.37;;;;;;;31.28;49.20;96417.16;2082689;28;20455;-59
2023/06/22 11:19:21;;;;;;;13.47;5.87;;;;;;;30.82;49.75;96423.22;2081739;28;20431;-59
2023/06/22 11:20:22;;;;;;;14.73;5.67;;;;;;;30.62;50.62;96414.03;2080155;28;20431;-59
2023/06/22 11:21:24;;;;;;;23.87;7.67;;;;;;;30.72;49.96;96423.63;2081746;28;20421;-58
2023/06/22 11:22:26;;;;;;;17.40;6.30;;;;;;;30.86;50.14;96411.03;2082135;28;20433;-59
2023/06/22 11:23:28;;;;;;;24.00;6.75;;;;;;;30.75;50.06;96423.22;2083729;28;20464;-58
2023/06/22 11:24:29;;;;;;;19.70;6.53;;;;;;;30.56;51.05;96422.09;2080380;28;20189;-58
2023/06/22 11:25:31;;;;;;;21.87;5.50;;;;;;;30.61;51.30;96415.09;2081272;28;20814;-58
2023/06/22 11:26:33;;;;;;;23.33;6.50;;;;;;;30.96;50.34;96408.78;2084309;28;20426;-58
2023/06/22 11:27:35;;;;;;;31.27;7.13;;;;;;;30.93;49.81;96404.63;2082943;28;20217;-59
2023/06/22 11:28:36;;;;;;;25.03;7.00;;;;;;;30.60;50.44;96410.72;2082912;28;20465;-59
2023/06/22 11:29:39;;;;;;;30.07;6.80;;;;;;;30.28;51.54;96404.09;2085074;28;20443;-58
2023/06/22 11:30:40;;;;;;;21.30;6.60;;;;;;;30.67;50.95;96405.34;2080239;28;20583;-58
2023/06/22 11:31:43;;;;;;;23.00;6.50;;;;;;;30.57;51.45;96399.53;2082181;28;20434;-58
2023/06/22 11:32:44;;;;;;;39.15;6.40;;;;;;;30.57;51.22;96396.81;2084654;28;20513;-58
2023/06/22 11:33:47;;;;;;;22.90;6.90;;;;;;;30.24;51.93;96394.78;2083846;28;20198;-58
2023/06/22 11:34:49;;;;;;;41.77;7.90;;;;;;;30.35;52.23;96394.22;2080451;28;20435;-58
2023/06/22 11:35:50;;;;;;;22.17;7.00;;;;;;;30.26;51.91;96392.72;2080431;28;21101;-58
2023/06/22 11:36:52;;;;;;;21.50;6.00;;;;;;;30.69;51.85;96388.97;2083159;28;20819;-59
2023/06/22 11:37:53;;;;;;;28.00;5.85;;;;;;;31.01;51.45;96389.28;2079519;28;20465;-59
2023/06/22 11:38:55;;;;;;;18.70;6.40;;;;;;;31.24;50.95;96389.75;2080863;28;20212;-59
2023/06/22 11:39:56;;;;;;;30.00;6.30;;;;;;;31.28;49.81;96390.19;2080286;28;20434;-58
2023/06/22 11:41:07;;;;;;;21.13;7.40;;;;;;;30.85;50.88;96387.81;2083879;28;20925;-58
2023/06/22 11:42:10;;;;;;;37.30;6.40;;;;;;;30.07;52.67;96392.41;2080257;28;20442;-59
2023/06/22 11:43:11;;;;;;;12.10;6.10;;;;;;;30.15;52.03;96390.59;2080519;28;20458;-59
2023/06/22 11:44:13;;;;;;;19.47;6.10;;;;;;;30.04;52.37;96389.28;2082629;28;20456;-58
2023/06/22 11:45:14;;;;;;;25.97;6.47;;;;;;;30.05;52.52;96389.06;2085001;28;20442;-59
2023/06/22 11:46:16;;;;;;;20.23;6.77;;;;;;;30.12;52.71;96387.25;2084188;28;20434;-58
2023/06/22 11:47:17;;;;;;;18.20;6.53;;;;;;;30.07;53.23;96388.91;2080195;28;20439;-58
2023/06/22 11:48:18;;;;;;;14.17;7.10;;;;;;;30.10;53.91;96391.19;2080562;28;20467;-58
2023/06/22 11:49:20;;;;;;;17.13;6.83;;;;;;;29.96;53.33;96393.78;2084229;28;20547;-58
2023/06/22 11:50:21;;;;;;;19.97;6.50;;;;;;;29.78;54.05;96398.81;2085484;28;20772;-58
2023/06/22 11:51:23;;;;;;;25.63;7.10;;;;;;;30.07;53.78;96394.28;2082274;28;21165;-58
2023/06/22 11:52:24;;;;;;;27.87;6.80;;;;;;;30.29;53.50;96390.44;2083911;28;20773;-58
2023/06/22 11:53:26;;;;;;;15.45;5.57;;;;;;;30.18;53.56;96398.25;2083348;28;20463;-58
2023/06/22 11:54:28;;;;;;;14.40;6.23;;;;;;;29.82;53.67;96402.75;2082960;28;20193;-58
2023/06/22 11:55:29;;;;;;;20.60;6.60;;;;;;;29.30;55.26;96404.84;2079915;28;20434;-58
2023/06/22 11:56:31;;;;;;;14.40;6.17;;;;;;;29.36;55.05;96398.69;2080974;28;20434;-58
2023/06/22 11:57:35;;;;;;;21.47;7.07;;;;;;;29.43;54.48;96402.28;2082392;28;20787;-58
2023/06/22 11:58:36;;;;;;;21.10;6.73;;;;;;;29.41;54.08;96406.19;2082883;28;20434;-60